Apple Grove, North Carolina
Current Conditions -  °F | °C
As of 8:55 PM on Friday 21 Nov 2014 (Local Time) from KGEV Reporting Station
Clear Clear  
Wind Chill: 31°   Ceiling: Unl
Heat Index: 31°   Visibility: 10mi
Dew Point: -1°   Wind: 0mph
Humidity: 26%   Direction: NA
Pressure: 30.41"   Gusts: NA
Location:  36.524°N, 81.538°W
Report Text: KGEV 220155Z AUTO 00000KT 10SM CLR M01/M18 A3041 RMK AO2 T10061183
Loading
Personal Weather Stations






























Interactive Weather Map New forecast layout! Learn more

10-Day Weather Forecast

Advertisements
Track Severe Weather on mobile